Cannon Air Force Base
KCVS : now visible

Airfield :











YOU CAN JOIN US ON...

 
LOGIN :

Register | Disclaimer

   EN    FR    IT 

 









Legend :    VFR   Marginal VFR   IFR   Intensive IFR   Very Intensive IFR
Visi :
Ceiling :
>= 8 km
>= 3000ft
5 to 8 km
1000 to 3000 ft
1500m to 5 km
500 to 1000 ft
800 to 1500m
200 to 500 ft
< 800m
< 200 ft
Symbols :   Thunderstorms  Fog  Heavy snow  Heavy precipitations  Wind > 20 kt






- Airport Elevation : 4295 ft


KCVS - Cannon Air Force Base

CURRENT METAR :
  • 151758Z AUTO 00000KT 10SM CLR 04/M13 A3024 RMK AO2 SLP251 T00361128 10036 21063 50000 $

EXPIRED METARs :
  • 151658Z AUTO 35006KT 10SM CLR 02/M12 A3027 RMK AO2 SLP265 T00221117 $
  • 151558Z AUTO 28007KT 10SM CLR M01/M10 A3026 RMK AO2 SLP265 T10081102 $

TAF AMD TAF KCVS
Valid from the 15 at 06:00 until the 16 at 08:00 UTC


150600Z 1506/1608 VRB06KT 9999 FEW200 QNH3012INS
BECMG 1518/1519 27010G18KT 9999 SKC QNH3011INS
BECMG 1600/1601 VRB06KT 9999 SKC QNH3010INS TX09/1521Z TNM04/1513Z LAST NO AMDS AFT 1506 NEXT 1606
KZAB FIR / North America



MET'MAP, your aeronautical weather chart ! - Copyright ORBIFLY December 2007 - Disclaimer

ORBIFLY MET'MAP TEAM :

Programming & Development : Alexandra Zaïnal
Concept & original design : Baudouin d'Aumeries
Assistance for programming : Marc-Olivier Méhu
Technical & hardware support : Manuel Goepfert

Contact : metmap@orbifly.com




SOURCES & CREDITS :

   NOAA       Earth
Advisory